createdAt,value
2023-02-23T00:09:47.297Z,53.40
2023-02-23T00:19:52.944Z,53.60
2023-02-23T00:29:56.687Z,53.34
2023-02-23T00:40:00.182Z,53.58
2023-02-23T00:50:15.273Z,53.37
2023-02-23T01:00:20.747Z,53.26
2023-02-23T01:10:25.597Z,53.01
2023-02-23T01:20:29.153Z,52.37
2023-02-23T01:30:32.797Z,52.00
2023-02-23T01:40:47.559Z,52.08
2023-02-23T01:50:53.483Z,52.50
2023-02-23T02:01:03.427Z,52.52
2023-02-23T02:11:26.209Z,52.71
2023-02-23T02:22:09.002Z,52.69
2023-02-23T02:32:40.436Z,53.00
2023-02-23T02:42:55.528Z,53.32
2023-02-23T02:53:07.298Z,53.55
2023-02-23T03:03:54.825Z,54.00
2023-02-23T03:14:45.191Z,53.74
2023-02-23T03:25:26.205Z,54.12
2023-02-23T03:36:31.171Z,53.91
2023-02-23T03:46:56.450Z,54.05
2023-02-23T03:57:25.331Z,54.28
2023-02-23T04:07:51.141Z,53.95
2023-02-23T04:17:56.768Z,53.64
2023-02-23T04:28:01.347Z,53.69
2023-02-23T04:38:04.986Z,53.33
2023-02-23T04:48:08.875Z,53.19
2023-02-23T04:58:15.858Z,53.01
2023-02-23T05:08:20.747Z,52.52
2023-02-23T05:18:26.629Z,52.62
2023-02-23T05:28:30.841Z,52.49
2023-02-23T05:38:34.496Z,52.65
2023-02-23T05:48:38.655Z,52.53
2023-02-23T05:58:42.232Z,52.29
2023-02-23T06:08:47.912Z,52.03
2023-02-23T06:18:52.964Z,51.74
2023-02-23T06:28:57.396Z,51.48
2023-02-23T06:39:00.994Z,50.90
2023-02-23T06:49:05.209Z,50.62
2023-02-23T06:59:08.783Z,50.26
2023-02-23T07:09:15.754Z,49.73
2023-02-23T07:19:20.999Z,49.18
2023-02-23T07:29:27.873Z,48.68
2023-02-23T07:39:31.597Z,48.31
2023-02-23T07:49:35.341Z,48.01
2023-02-23T07:59:39.629Z,47.59
2023-02-23T08:09:45.138Z,47.50
2023-02-23T08:19:50.738Z,47.36
2023-02-23T08:29:59.153Z,46.90
2023-02-23T08:40:02.908Z,46.56
2023-02-23T08:50:06.647Z,46.23
2023-02-23T09:00:16.185Z,45.92
2023-02-23T09:10:25.073Z,46.21
2023-02-23T09:20:30.817Z,46.33
2023-02-23T09:30:34.449Z,46.16
2023-02-23T09:40:57.183Z,45.94
2023-02-23T09:51:02.591Z,46.04
2023-02-23T10:01:29.425Z,45.84
2023-02-23T10:12:15.166Z,45.40
2023-02-23T10:22:20.943Z,45.56
2023-02-23T10:32:52.373Z,45.41
2023-02-23T10:42:57.607Z,45.25
2023-02-23T10:53:16.725Z,44.70
2023-02-23T11:03:29.603Z,44.57
2023-02-23T11:13:52.446Z,44.61
2023-02-23T11:23:58.911Z,44.13
2023-02-23T11:34:06.840Z,43.81
2023-02-23T11:44:30.670Z,43.59
2023-02-23T11:54:35.853Z,43.26
2023-02-23T12:04:41.460Z,43.06
2023-02-23T12:15:09.771Z,43.16
2023-02-23T12:25:35.016Z,42.90
2023-02-23T12:36:04.221Z,42.73
2023-02-23T12:46:23.031Z,42.87
2023-02-23T12:57:14.560Z,42.64
2023-02-23T13:07:23.002Z,42.59
2023-02-23T13:17:32.362Z,42.68
2023-02-23T13:27:42.454Z,42.84
2023-02-23T13:38:03.387Z,42.93
2023-02-23T13:48:57.254Z,42.99
2023-02-23T13:59:09.801Z,43.55
2023-02-23T14:09:22.278Z,44.03
2023-02-23T14:19:39.236Z,44.38
2023-02-23T14:30:05.328Z,44.72
2023-02-23T14:40:25.045Z,45.07
2023-02-23T14:50:35.713Z,45.77
2023-02-23T15:00:42.717Z,46.35
2023-02-23T15:10:59.614Z,47.01
2023-02-23T15:21:23.938Z,47.41
2023-02-23T15:31:31.069Z,47.90
2023-02-23T15:41:39.446Z,48.55
2023-02-23T15:51:59.553Z,49.37
2023-02-23T16:02:14.909Z,49.80
2023-02-23T16:12:21.223Z,50.47
2023-02-23T16:22:27.992Z,51.00
2023-02-23T16:32:39.609Z,51.31
2023-02-23T16:42:43.688Z,51.50
2023-02-23T16:52:53.653Z,51.59
2023-02-23T17:03:02.358Z,51.90
2023-02-23T17:13:13.492Z,52.39
2023-02-23T17:23:17.548Z,52.58
2023-02-23T17:33:21.751Z,52.89
2023-02-23T17:43:28.157Z,52.98
2023-02-23T17:53:33.312Z,53.28
2023-02-23T18:03:39.318Z,53.48
2023-02-23T18:13:43.016Z,53.48
2023-02-23T18:23:50.034Z,53.83
2023-02-23T18:33:56.843Z,53.59
2023-02-23T18:44:04.318Z,53.65
2023-02-23T18:54:18.640Z,53.77
2023-02-23T19:04:28.232Z,54.02
2023-02-23T19:14:48.333Z,54.12
2023-02-23T19:24:55.377Z,54.11
2023-02-23T19:34:59.249Z,54.36
2023-02-23T19:45:05.147Z,54.37
2023-02-23T19:55:13.213Z,54.53
2023-02-23T20:05:18.532Z,54.17
2023-02-23T20:15:26.610Z,54.00
2023-02-23T20:25:31.880Z,53.56
2023-02-23T20:35:36.110Z,53.62
2023-02-23T20:45:42.229Z,53.70
2023-02-23T20:55:47.347Z,53.55
2023-02-23T21:05:51.963Z,53.50
2023-02-23T21:16:02.321Z,52.99
2023-02-23T21:26:17.228Z,53.24
2023-02-23T21:36:21.328Z,52.89
2023-02-23T21:46:26.730Z,52.73
2023-02-23T21:56:34.317Z,52.57
2023-02-23T22:06:41.682Z,52.67
2023-02-23T22:16:52.700Z,52.78
2023-02-23T22:26:56.893Z,52.86
2023-02-23T22:37:02.815Z,53.22
2023-02-23T22:47:07.988Z,53.36
2023-02-23T22:57:13.195Z,53.08
2023-02-23T23:07:20.151Z,53.40
2023-02-23T23:17:23.787Z,53.38
2023-02-23T23:27:27.530Z,53.50
2023-02-23T23:37:31.207Z,53.99
2023-02-23T23:47:34.744Z,54.40
2023-02-23T23:57:39.449Z,54.78
